Sparta, TN

7:53 PM CDT on March 30, 2017 (GMT -0500)
Upper Cumberland Regional

Weather History for KSRB - March, 2014

Change the Weather History Date:

Friday, March 21, 2014

  Actual Average (KCSV) Record (KCSV)
Temperature  
Mean Temperature 45 °F -  
Max Temperature 66 °F 57 °F 78 °F (2017)
Min Temperature 24 °F 35 °F 9 °F (1965)
Degree Days  
Heating Degree Days 20    
Moisture  
Dew Point 26 °F    
Average Humidity 52    
Maximum Humidity 100    
Minimum Humidity 17    
Precipitation  
Precipitation 0.00 in - - ()
Sea Level Pressure  
Sea Level Pressure 30.04 in    
Wind  
Wind Speed 3 mph (SSW)    
Max Wind Speed 13 mph    
Max Gust Speed 14 mph    
Visibility 10 miles    
Events      
Averages and records for this station are not official NWS values.
T = Trace of Precipitation, MM = Missing Value Source: NWS Daily Summary

Daily Weather History Graph

Daily Weather History Graph

Search for Another Location

Airport or City:

Trip Planner

Search our weather history database for the weather conditions in past years. The results will help you decide how hot, cold, wet, or windy it might be!

Date:

Astronomy

Mar. 21, 2014 Rise Set
Actual Time 6:44 AM CDT 6:54 PM CDT
Civil Twilight 6:18 AM CDT 7:20 PM CDT
Nautical Twilight 5:48 AM CDT 7:50 PM CDT
Astronomical Twilight 5:18 AM CDT 8:20 PM CDT
Moon No Moon Rise 9:43 AM CDT (3/21)
Length of Visible Light 13h 01m
Length of Day
12h 10m
Waning Gibbous, 75% of the Moon is Illuminated
Mar 21
Waning Gibbous
Mar 23
Last Quarter
Mar 30
New
Apr 7
First Quarter
Apr 15
Full

Hourly Weather History & Observations

Time (CDT) Temp. Dew Point Humidity Pressure Visibility Wind Dir Wind Speed Gust Speed Precip Events Conditions
12:15 AM 28.4 °F 26.6 °F 93% 30.09 in 10.0 mi Calm Calm - N/A   Clear
12:35 AM 28.4 °F 26.6 °F 93% 30.09 in 10.0 mi Calm Calm - N/A   Clear
12:55 AM 28.4 °F 26.6 °F 93% 30.09 in 10.0 mi Calm Calm - N/A   Clear
1:15 AM 28.4 °F 26.6 °F 93% 30.09 in 10.0 mi Calm Calm - N/A   Clear
1:35 AM 26.6 °F 24.8 °F 93% 30.09 in 10.0 mi Calm Calm - N/A   Clear
1:55 AM 26.6 °F 24.8 °F 93% 30.09 in 10.0 mi Calm Calm - N/A   Clear
2:15 AM 26.6 °F 24.8 °F 93% 30.10 in 10.0 mi Calm Calm - N/A   Clear
2:35 AM 26.6 °F 24.8 °F 93% 30.10 in 10.0 mi Calm Calm - N/A   Clear
2:55 AM 26.6 °F 24.8 °F 93% 30.10 in 10.0 mi Calm Calm - N/A   Clear
3:15 AM 26.6 °F 24.8 °F 93% 30.09 in 10.0 mi Calm Calm - N/A   Clear
3:35 AM 28.4 °F 26.6 °F 93% 30.08 in 10.0 mi Calm Calm - N/A   Clear
3:55 AM 26.6 °F 24.8 °F 93% 30.08 in 10.0 mi Calm Calm - N/A   Clear
4:15 AM 26.6 °F 24.8 °F 93% 30.09 in 10.0 mi Calm Calm - N/A   Clear
4:35 AM 24.8 °F 23.0 °F 93% 30.09 in 10.0 mi Calm Calm - N/A   Clear
4:55 AM 26.6 °F 24.8 °F 93% 30.09 in 10.0 mi Calm Calm - N/A   Clear
5:15 AM 24.8 °F 24.8 °F 100% 30.08 in 10.0 mi Calm Calm - N/A   Clear
5:35 AM 24.8 °F 23.0 °F 93% 30.08 in 10.0 mi Calm Calm - N/A   Clear
5:55 AM 24.8 °F 23.0 °F 93% 30.08 in 10.0 mi Calm Calm - N/A   Clear
6:15 AM 24.8 °F 23.0 °F 93% 30.09 in 10.0 mi Calm Calm - N/A   Clear
6:35 AM 24.8 °F 23.0 °F 93% 30.09 in 10.0 mi Calm Calm - N/A   Clear
6:55 AM 24.8 °F 23.0 °F 93% 30.09 in 10.0 mi Calm Calm - N/A   Clear
7:15 AM 26.6 °F 24.8 °F 93% 30.10 in 10.0 mi Calm Calm - N/A   Clear
7:35 AM 28.4 °F 26.6 °F 93% 30.10 in 10.0 mi Calm Calm - N/A   Clear
7:55 AM 33.8 °F 30.2 °F 87% 30.11 in 10.0 mi Calm Calm - N/A   Clear
8:15 AM 39.2 °F 32.0 °F 75% 30.11 in 10.0 mi Calm Calm - N/A   Clear
8:35 AM 44.6 °F 30.2 °F 57% 30.11 in 10.0 mi Calm Calm - N/A   Clear
8:55 AM 48.2 °F 32.0 °F 54% 30.11 in 10.0 mi South 4.6 mph - N/A   Clear
9:15 AM 51.8 °F 30.2 °F 44% 30.10 in 10.0 mi South 4.6 mph - N/A   Clear
9:35 AM 53.6 °F 28.4 °F 38% 30.09 in 10.0 mi South 9.2 mph - N/A   Clear
9:55 AM 53.6 °F 28.4 °F 38% 30.09 in 10.0 mi South 8.1 mph - N/A   Clear
10:15 AM 55.4 °F 30.2 °F 38% 30.10 in 10.0 mi South 6.9 mph - N/A   Clear
10:35 AM 59.0 °F 28.4 °F 31% 30.10 in 10.0 mi South 8.1 mph - N/A   Clear
10:55 AM 59.0 °F 28.4 °F 31% 30.10 in 10.0 mi SSW 5.8 mph - N/A   Clear
11:15 AM 60.8 °F 28.4 °F 29% 30.10 in 10.0 mi SW 9.2 mph - N/A   Clear
11:35 AM 62.6 °F 28.4 °F 27% 30.09 in 10.0 mi South 4.6 mph - N/A   Clear
11:55 AM 62.6 °F 24.8 °F 24% 30.10 in 10.0 mi WSW 8.1 mph - N/A   Clear
12:15 PM 62.6 °F 28.4 °F 27% 30.09 in 10.0 mi SW 5.8 mph - N/A   Clear
12:35 PM 64.4 °F 24.8 °F 22% 30.08 in 10.0 mi Variable 3.5 mph - N/A   Clear
12:55 PM 64.4 °F 26.6 °F 24% 30.06 in 10.0 mi SW 9.2 mph - N/A   Clear
1:15 PM 64.4 °F 26.6 °F 24% 30.05 in 10.0 mi Variable 5.8 mph - N/A   Clear
1:35 PM 66.2 °F 24.8 °F 21% 30.04 in 10.0 mi SW 9.2 mph 13.8 mph N/A   Clear
1:55 PM 66.2 °F 23.0 °F 19% 30.03 in 10.0 mi SW 12.7 mph - N/A   Clear
2:15 PM 66.2 °F 23.0 °F 19% 30.02 in 10.0 mi SW 10.4 mph - N/A   Clear
2:35 PM 66.2 °F 21.2 °F 18% 30.00 in 10.0 mi WSW 8.1 mph - N/A   Clear
2:55 PM 66.2 °F 21.2 °F 18% 30.00 in 10.0 mi WSW 11.5 mph - N/A   Clear
3:15 PM 66.2 °F 21.2 °F 18% 29.99 in 10.0 mi SW 9.2 mph - N/A   Clear
3:35 PM 66.2 °F 19.4 °F 17% 29.98 in 10.0 mi SSW 11.5 mph - N/A   Clear
3:55 PM 66.2 °F 19.4 °F 17% 29.98 in 10.0 mi WSW 8.1 mph - N/A   Clear
4:15 PM 66.2 °F 21.2 °F 18% 29.97 in 10.0 mi SW 12.7 mph - N/A   Clear
4:35 PM 66.2 °F 21.2 °F 18% 29.96 in 10.0 mi SW 12.7 mph - N/A   Clear
4:55 PM 66.2 °F 23.0 °F 19% 29.96 in 10.0 mi SW 8.1 mph - N/A   Clear
5:15 PM 64.4 °F 23.0 °F 21% 29.96 in 10.0 mi SW 6.9 mph - N/A   Clear
5:35 PM 64.4 °F 24.8 °F 22% 29.96 in 10.0 mi SW 12.7 mph - N/A   Clear
5:55 PM 64.4 °F 24.8 °F 22% 29.96 in 10.0 mi SW 8.1 mph - N/A   Clear
6:15 PM 62.6 °F 24.8 °F 24% 29.97 in 10.0 mi WSW 8.1 mph - N/A   Clear
6:35 PM 62.6 °F 24.8 °F 24% 29.97 in 10.0 mi WSW 5.8 mph - N/A   Clear
6:55 PM 60.8 °F 24.8 °F 25% 29.98 in 10.0 mi SW 8.1 mph - N/A   Clear
7:15 PM 59.0 °F 24.8 °F 27% 29.98 in 10.0 mi SW 6.9 mph - N/A   Clear
7:35 PM 55.4 °F 26.6 °F 33% 29.98 in 10.0 mi SW 5.8 mph - N/A   Clear
7:55 PM 55.4 °F 26.6 °F 33% 29.98 in 10.0 mi SSW 6.9 mph - N/A   Clear
8:15 PM 53.6 °F 26.6 °F 35% 29.99 in 10.0 mi South 4.6 mph - N/A   Clear
8:35 PM 53.6 °F 26.6 °F 35% 29.99 in 10.0 mi SSW 4.6 mph - N/A   Clear
8:55 PM 53.6 °F 26.6 °F 35% 29.99 in 10.0 mi SSW 5.8 mph - N/A   Clear
9:15 PM 53.6 °F 26.6 °F 35% 29.98 in 10.0 mi South 4.6 mph - N/A   Clear
9:35 PM 55.4 °F 26.6 °F 33% 29.97 in 10.0 mi South 6.9 mph - N/A   Clear
9:55 PM 55.4 °F 26.6 °F 33% 29.97 in 10.0 mi South 5.8 mph - N/A   Clear
10:15 PM 55.4 °F 26.6 °F 33% 29.98 in 10.0 mi South 5.8 mph - N/A   Clear
10:35 PM 53.6 °F 28.4 °F 38% 29.99 in 10.0 mi South 3.5 mph - N/A   Clear
10:55 PM 50.0 °F 30.2 °F 47% 30.00 in 10.0 mi Calm Calm - N/A   Clear
11:15 PM 46.4 °F 33.8 °F 62% 30.00 in 10.0 mi Calm Calm - N/A   Clear
11:35 PM 42.8 °F 33.8 °F 70% 30.00 in 10.0 mi Calm Calm - N/A   Clear
11:55 PM 39.2 °F 30.2 °F 70% 30.00 in 10.0 mi Calm Calm - N/A   Clear